Time;durP1;ratioP1;P1;durP2;ratioP2;P2;SDS_P1;SDS_P2;PMS_P1;PMS_P2;Temp;Humidity;BMP_temperature;BMP_pressure;BME280_temperature;BME280_humidity;BME280_pressure;Samples;Min_cycle;Max_cycle;Signal;HPM_P1;HPM_P2
2023/06/08 00:00:41;;;;;;;0.40;0.40;;;21.70;58.90;;;;;;5028066;28;20200;-83
2023/06/08 00:03:12;;;;;;;0.50;0.50;;;21.70;59.00;;;;;;5031294;28;20203;-82
2023/06/08 00:05:47;;;;;;;0.30;0.30;;;21.60;59.10;;;;;;5032985;28;20553;-82
2023/06/08 00:08:15;;;;;;;0.73;0.52;;;21.60;59.20;;;;;;5034769;28;20201;-83
2023/06/08 00:10:45;;;;;;;1.17;0.80;;;21.60;59.20;;;;;;5023941;28;20224;-84
2023/06/08 00:13:16;;;;;;;1.17;0.63;;;21.60;59.20;;;;;;5029728;28;20228;-84
2023/06/08 00:15:46;;;;;;;0.35;0.35;;;21.50;59.80;;;;;;5028558;28;20188;-84
2023/06/08 00:18:15;;;;;;;0.52;0.50;;;21.50;60.00;;;;;;5031975;28;20199;-84
2023/06/08 00:20:44;;;;;;;0.20;0.20;;;21.50;60.30;;;;;;5023266;28;20212;-83
2023/06/08 00:23:12;;;;;;;0.60;0.60;;;21.50;60.50;;;;;;5027608;28;20208;-84
2023/06/08 00:25:41;;;;;;;0.75;0.40;;;21.40;60.40;;;;;;5027780;28;20301;-84
2023/06/08 00:28:09;;;;;;;0.85;0.73;;;21.40;60.40;;;;;;5022159;28;20214;-83
2023/06/08 00:30:38;;;;;;;0.33;0.33;;;21.30;60.90;;;;;;5030335;28;20227;-83
2023/06/08 00:33:08;;;;;;;0.27;0.27;;;21.30;61.00;;;;;;5024665;28;20754;-83
2023/06/08 00:35:36;;;;;;;0.47;0.43;;;21.30;61.30;;;;;;5028846;28;20277;-85
2023/06/08 00:38:05;;;;;;;1.17;0.60;;;21.20;61.20;;;;;;5027040;28;20196;-85
2023/06/08 00:40:33;;;;;;;0.43;0.43;;;21.20;61.40;;;;;;5023251;28;20228;-84
2023/06/08 00:43:02;;;;;;;0.52;0.52;;;21.10;61.40;;;;;;5029253;28;20570;-82
2023/06/08 00:45:31;;;;;;;0.40;0.40;;;21.10;62.20;;;;;;5062914;28;20194;-84
2023/06/08 00:47:59;;;;;;;0.60;0.47;;;21.00;62.00;;;;;;5032229;28;20206;-85
2023/06/08 00:50:32;;;;;;;0.73;0.55;;;21.00;62.60;;;;;;5031931;28;20223;-84
2023/06/08 00:53:01;;;;;;;0.63;0.50;;;20.90;63.80;;;;;;5029603;28;20641;-84
2023/06/08 00:55:33;;;;;;;0.70;0.70;;;20.90;63.10;;;;;;5028889;28;20200;-84
2023/06/08 00:58:02;;;;;;;0.50;0.47;;;20.80;63.30;;;;;;5026847;28;20261;-83
2023/06/08 01:00:32;;;;;;;0.50;0.50;;;20.80;64.10;;;;;;5025417;28;21016;-83
2023/06/08 01:03:01;;;;;;;1.40;0.63;;;20.70;64.00;;;;;;5028351;28;20203;-82
2023/06/08 01:05:33;;;;;;;0.50;0.50;;;20.70;63.90;;;;;;5028312;28;20565;-82
2023/06/08 01:08:11;;;;;;;0.70;0.70;;;20.60;63.90;;;;;;5031728;28;20246;-80
2023/06/08 01:10:47;;;;;;;0.63;0.63;;;20.60;64.10;;;;;;5028331;28;20195;-82
2023/06/08 01:13:26;;;;;;;0.40;0.40;;;20.60;64.10;;;;;;5030191;28;20572;-82
2023/06/08 01:16:01;;;;;;;0.63;0.63;;;20.50;64.20;;;;;;5027290;28;20191;-83
2023/06/08 01:18:38;;;;;;;0.30;0.30;;;20.50;64.60;;;;;;5031581;28;20193;-83
2023/06/08 01:21:37;;;;;;;0.20;0.20;;;20.50;65.00;;;;;;5028297;28;20199;-82
2023/06/08 01:24:14;;;;;;;0.40;0.40;;;20.40;65.00;;;;;;5027781;28;20268;-83
2023/06/08 01:26:49;;;;;;;0.83;0.80;;;20.40;65.30;;;;;;5029278;28;20184;-83
2023/06/08 01:29:21;;;;;;;0.73;0.60;;;20.40;65.60;;;;;;5029480;28;20183;-82
2023/06/08 01:31:50;;;;;;;0.50;0.50;;;20.30;65.90;;;;;;5031027;28;20287;-82
2023/06/08 01:34:19;;;;;;;0.93;0.70;;;20.30;66.20;;;;;;5027095;28;20756;-83
2023/06/08 01:36:57;;;;;;;0.43;0.43;;;20.30;66.10;;;;;;5008469;28;20196;-83
2023/06/08 01:39:46;;;;;;;1.47;0.87;;;20.20;66.60;;;;;;5028336;28;20192;-82
2023/06/08 01:42:18;;;;;;;0.57;0.50;;;20.20;67.10;;;;;;5024148;28;20191;-82
2023/06/08 01:44:56;;;;;;;1.97;0.60;;;20.10;67.40;;;;;;5032117;28;20188;-82
2023/06/08 01:47:32;;;;;;;1.27;0.90;;;20.10;67.70;;;;;;5027407;28;20196;-82
2023/06/08 01:50:02;;;;;;;1.80;1.27;;;20.10;68.00;;;;;;5028444;28;20191;-83
2023/06/08 01:52:31;;;;;;;0.40;0.40;;;20.00;68.20;;;;;;5030415;28;20220;-83
2023/06/08 01:55:01;;;;;;;1.03;0.77;;;20.00;68.10;;;;;;5025761;28;20279;-82
2023/06/08 01:57:30;;;;;;;0.50;0.50;;;20.00;68.10;;;;;;5028353;28;20673;-83
2023/06/08 01:59:58;;;;;;;0.43;0.43;;;19.90;68.30;;;;;;5030903;28;20196;-82
2023/06/08 02:02:27;;;;;;;2.80;1.43;;;19.90;68.40;;;;;;5030635;28;20202;-82
2023/06/08 02:04:57;;;;;;;1.07;0.50;;;19.90;68.40;;;;;;5030591;28;20200;-82
2023/06/08 02:07:25;;;;;;;0.30;0.30;;;19.90;68.30;;;;;;5027362;28;20290;-84
2023/06/08 02:09:54;;;;;;;0.80;0.40;;;19.80;68.80;;;;;;5027699;28;20188;-82
2023/06/08 02:12:24;;;;;;;2.37;0.77;;;19.80;69.00;;;;;;5026314;28;20245;-83
2023/06/08 02:14:52;;;;;;;6.93;0.80;;;19.80;69.00;;;;;;5024246;28;20200;-83
2023/06/08 02:17:27;;;;;;;0.60;0.60;;;19.80;69.70;;;;;;5025023;28;20211;-82
2023/06/08 02:19:55;;;;;;;0.60;0.50;;;19.80;69.60;;;;;;5027336;28;20200;-83
2023/06/08 02:22:24;;;;;;;1.30;0.80;;;19.70;70.00;;;;;;5025412;28;20209;-83
2023/06/08 02:24:52;;;;;;;0.73;0.57;;;19.70;70.80;;;;;;5027677;28;20204;-82
2023/06/08 02:27:21;;;;;;;0.40;0.40;;;19.70;71.10;;;;;;5027357;28;20209;-83
2023/06/08 02:29:51;;;;;;;0.40;0.40;;;19.60;71.10;;;;;;5029590;28;20203;-82
2023/06/08 02:32:19;;;;;;;0.53;0.53;;;19.60;70.80;;;;;;5028351;28;20227;-83
2023/06/08 02:34:53;;;;;;;1.13;0.87;;;19.60;70.80;;;;;;5025197;28;20191;-82
2023/06/08 02:37:21;;;;;;;0.47;0.47;;;19.60;71.40;;;;;;5031651;28;20199;-81
2023/06/08 02:39:50;;;;;;;4.20;1.37;;;19.60;71.60;;;;;;5030566;28;20192;-83
2023/06/08 02:42:19;;;;;;;0.40;0.40;;;19.60;72.00;;;;;;5030016;28;20204;-83
2023/06/08 02:44:47;;;;;;;0.60;0.60;;;19.60;72.30;;;;;;5026234;28;20215;-83
2023/06/08 02:47:17;;;;;;;2.10;1.10;;;19.60;72.40;;;;;;5029765;28;20641;-81
2023/06/08 02:49:46;;;;;;;0.57;0.57;;;19.60;73.00;;;;;;5025525;28;20228;-84
2023/06/08 02:52:14;;;;;;;0.70;0.70;;;19.60;72.90;;;;;;5025928;28;20771;-82
2023/06/08 02:54:43;;;;;;;0.40;0.40;;;19.60;73.00;;;;;;5025701;28;20195;-84
2023/06/08 02:57:11;;;;;;;0.40;0.40;;;19.50;73.00;;;;;;5017214;28;20207;-85
2023/06/08 02:59:40;;;;;;;1.80;0.93;;;19.50;73.20;;;;;;5024453;28;20206;-84
2023/06/08 03:02:09;;;;;;;2.00;0.77;;;19.50;73.00;;;;;;5023100;28;20258;-85
2023/06/08 03:04:43;;;;;;;0.87;0.70;;;19.50;73.20;;;;;;5022317;28;21786;-83
2023/06/08 03:07:15;;;;;;;0.57;0.57;;;19.50;73.30;;;;;;5024962;28;20199;-82
2023/06/08 03:09:44;;;;;;;0.90;0.80;;;19.50;73.30;;;;;;5025919;28;20187;-81
2023/06/08 03:12:14;;;;;;;0.67;0.63;;;19.40;73.30;;;;;;5022147;28;20232;-84
2023/06/08 03:14:42;;;;;;;1.13;0.77;;;19.40;73.80;;;;;;5026497;28;20200;-82
2023/06/08 03:17:11;;;;;;;0.50;0.50;;;19.40;73.60;;;;;;5029190;28;20348;-85
2023/06/08 03:19:42;;;;;;;0.77;0.60;;;19.40;73.70;;;;;;5028346;28;20279;-85
2023/06/08 03:22:10;;;;;;;0.50;0.50;;;19.40;73.70;;;;;;5031457;28;20200;-84
2023/06/08 03:24:40;;;;;;;0.50;0.50;;;19.40;73.90;;;;;;5030832;28;20196;-85
2023/06/08 03:27:09;;;;;;;0.20;0.20;;;19.50;73.60;;;;;;5034705;28;20199;-84
2023/06/08 03:29:37;;;;;;;0.30;0.30;;;19.50;73.20;;;;;;5031430;28;20537;-85
2023/06/08 03:32:07;;;;;;;4.33;1.67;;;19.50;73.30;;;;;;5028055;28;20662;-82
2023/06/08 03:34:37;;;;;;;0.97;0.50;;;19.60;73.20;;;;;;5028937;28;20193;-84
2023/06/08 03:37:07;;;;;;;0.50;0.50;;;19.60;73.60;;;;;;5028593;28;20203;-85
2023/06/08 03:39:36;;;;;;;0.73;0.70;;;19.60;73.20;;;;;;5026355;28;20191;-82
2023/06/08 03:42:08;;;;;;;0.37;0.37;;;19.70;73.60;;;;;;5025697;28;20657;-83
2023/06/08 03:44:37;;;;;;;0.40;0.40;;;19.70;73.60;;;;;;5023626;28;20189;-83
2023/06/08 03:47:09;;;;;;;0.77;0.77;;;19.70;73.70;;;;;;5027502;28;20563;-83
2023/06/08 03:49:37;;;;;;;2.97;0.70;;;19.80;73.80;;;;;;5035572;28;20188;-82
2023/06/08 03:52:08;;;;;;;1.10;0.57;;;19.80;73.60;;;;;;5029318;28;20207;-82
2023/06/08 03:54:36;;;;;;;0.40;0.40;;;19.80;73.50;;;;;;5029721;28;20191;-81
2023/06/08 03:57:05;;;;;;;0.80;0.80;;;19.90;74.40;;;;;;5023496;28;20227;-82
2023/06/08 03:59:34;;;;;;;0.60;0.60;;;19.90;74.30;;;;;;5025494;28;20206;-81
2023/06/08 04:02:03;;;;;;;0.40;0.40;;;19.90;73.90;;;;;;5025831;28;20656;-82
2023/06/08 04:04:32;;;;;;;0.50;0.50;;;20.00;73.70;;;;;;5027215;28;20195;-83
2023/06/08 04:07:01;;;;;;;0.63;0.63;;;20.00;73.60;;;;;;5031324;28;20210;-83
2023/06/08 04:09:31;;;;;;;0.40;0.40;;;20.00;73.70;;;;;;5022350;28;20192;-82
2023/06/08 04:12:00;;;;;;;0.43;0.37;;;20.10;73.50;;;;;;5029884;28;20246;-81
2023/06/08 04:14:29;;;;;;;0.40;0.40;;;20.20;73.40;;;;;;5029672;28;20322;-82
2023/06/08 04:16:57;;;;;;;0.30;0.30;;;20.20;73.30;;;;;;5025599;28;20630;-83
2023/06/08 04:19:26;;;;;;;1.33;0.47;;;20.30;73.50;;;;;;5034933;28;20208;-82
2023/06/08 04:21:56;;;;;;;0.57;0.57;;;20.30;73.60;;;;;;5027492;28;20200;-82
2023/06/08 04:24:25;;;;;;;0.70;0.70;;;20.40;73.40;;;;;;5027703;28;20195;-83
2023/06/08 04:26:56;;;;;;;1.65;1.08;;;20.50;73.30;;;;;;5031269;28;20195;-82
2023/06/08 04:29:24;;;;;;;0.60;0.60;;;20.50;73.50;;;;;;5028927;28;20214;-83
2023/06/08 04:31:53;;;;;;;0.57;0.57;;;20.60;73.50;;;;;;5025392;28;20283;-83
2023/06/08 04:34:21;;;;;;;1.27;0.82;;;20.60;73.40;;;;;;5033514;28;20229;-82
2023/06/08 04:36:50;;;;;;;1.43;0.80;;;20.70;73.60;;;;;;5031213;28;20229;-83
2023/06/08 04:39:19;;;;;;;2.65;0.75;;;20.80;74.80;;;;;;5029920;28;20196;-83
2023/06/08 04:41:47;;;;;;;1.25;0.60;;;20.80;75.20;;;;;;5026039;28;20196;-82
2023/06/08 04:44:20;;;;;;;1.00;0.45;;;20.90;74.70;;;;;;5030878;28;20204;-82
2023/06/08 04:46:49;;;;;;;0.88;0.52;;;21.00;74.40;;;;;;5025243;28;20330;-82
2023/06/08 04:49:19;;;;;;;1.88;1.35;;;21.00;74.80;;;;;;5026028;28;20211;-83
2023/06/08 04:51:47;;;;;;;0.40;0.40;;;21.10;75.50;;;;;;5024338;28;20279;-83
2023/06/08 04:54:17;;;;;;;1.30;0.60;;;21.10;75.40;;;;;;5028099;28;20273;-82
2023/06/08 04:56:45;;;;;;;0.73;0.73;;;21.20;75.50;;;;;;5029150;28;20198;-84
2023/06/08 04:59:14;;;;;;;0.80;0.73;;;21.30;76.20;;;;;;5025324;28;20192;-82
2023/06/08 05:01:44;;;;;;;2.28;1.17;;;21.30;76.10;;;;;;5023378;28;20253;-83
2023/06/08 05:04:13;;;;;;;1.27;0.68;;;21.40;75.90;;;;;;5029780;28;20191;-83
2023/06/08 05:06:41;;;;;;;0.65;0.65;;;21.40;76.00;;;;;;5032247;28;20196;-82
2023/06/08 05:09:42;;;;;;;0.68;0.65;;;21.50;76.10;;;;;;5029162;28;20218;-84
2023/06/08 05:12:11;;;;;;;0.40;0.40;;;21.60;75.70;;;;;;5019316;28;20235;-82
2023/06/08 05:14:41;;;;;;;1.15;0.40;;;21.70;75.50;;;;;;5026295;28;20234;-83
2023/06/08 05:17:11;;;;;;;0.63;0.57;;;21.70;75.10;;;;;;5026536;28;20198;-83
2023/06/08 05:19:39;;;;;;;0.40;0.40;;;21.80;75.00;;;;;;5033097;28;20231;-82
2023/06/08 05:22:08;;;;;;;0.60;0.50;;;21.90;75.50;;;;;;5028739;28;21890;-82
2023/06/08 05:24:36;;;;;;;0.52;0.52;;;21.90;75.20;;;;;;5030739;28;20200;-82
2023/06/08 05:27:05;;;;;;;0.52;0.52;;;22.00;74.90;;;;;;5030090;28;20302;-83
2023/06/08 05:29:34;;;;;;;0.40;0.40;;;22.10;74.70;;;;;;5030497;28;20254;-82
2023/06/08 05:32:02;;;;;;;0.82;0.45;;;22.20;74.60;;;;;;5032188;28;21158;-82
2023/06/08 05:34:32;;;;;;;0.70;0.45;;;22.30;74.50;;;;;;5039339;28;20225;-82
2023/06/08 05:37:01;;;;;;;0.40;0.40;;;22.40;74.20;;;;;;5028707;28;20196;-83
2023/06/08 05:39:29;;;;;;;0.40;0.40;;;22.40;73.90;;;;;;5030150;28;20712;-83
2023/06/08 05:41:58;;;;;;;0.55;0.55;;;22.50;74.00;;;;;;5024066;28;20198;-84
2023/06/08 05:44:26;;;;;;;0.40;0.40;;;22.60;74.00;;;;;;5029227;28;20210;-81
2023/06/08 05:46:57;;;;;;;3.03;0.65;;;22.60;73.60;;;;;;5029228;28;20199;-81
2023/06/08 05:49:26;;;;;;;0.50;0.35;;;22.70;73.30;;;;;;5030104;28;20200;-82
2023/06/08 05:51:56;;;;;;;0.85;0.65;;;22.80;73.00;;;;;;5030128;28;20196;-82
2023/06/08 05:54:24;;;;;;;1.85;0.63;;;22.80;72.70;;;;;;5039289;28;20238;-83
2023/06/08 05:56:53;;;;;;;0.40;0.40;;;22.90;72.20;;;;;;5029734;28;20224;-82
2023/06/08 05:59:21;;;;;;;0.43;0.43;;;22.90;72.00;;;;;;5030057;28;20195;-83
2023/06/08 06:01:50;;;;;;;0.50;0.50;;;23.00;71.90;;;;;;5025446;28;20196;-81
2023/06/08 06:04:18;;;;;;;0.88;0.88;;;23.00;71.70;;;;;;5030933;28;20229;-81
2023/06/08 06:07:06;;;;;;;0.45;0.45;;;23.00;71.50;;;;;;5026304;28;20188;-82
2023/06/08 06:09:34;;;;;;;0.50;0.50;;;23.10;71.60;;;;;;5027650;28;20192;-82
2023/06/08 06:12:03;;;;;;;1.00;0.85;;;23.20;71.30;;;;;;5028958;28;20227;-84
2023/06/08 06:14:37;;;;;;;0.40;0.40;;;23.20;71.10;;;;;;5020301;28;20462;-82
2023/06/08 06:17:06;;;;;;;0.65;0.65;;;23.30;70.90;;;;;;5027996;28;20198;-81
2023/06/08 06:19:37;;;;;;;0.50;0.40;;;23.30;70.50;;;;;;5029368;28;20191;-82
2023/06/08 06:22:09;;;;;;;0.45;0.40;;;23.20;70.00;;;;;;5028898;28;20222;-80
2023/06/08 06:24:38;;;;;;;0.80;0.73;;;23.30;70.30;;;;;;5026729;28;21097;-81
2023/06/08 06:27:07;;;;;;;0.65;0.65;;;23.30;70.30;;;;;;5026391;28;20792;-81
2023/06/08 06:29:35;;;;;;;0.82;0.68;;;23.30;70.40;;;;;;5030065;28;20203;-82
2023/06/08 06:32:04;;;;;;;1.15;0.88;;;23.30;70.70;;;;;;5022284;28;20223;-82
2023/06/08 06:34:32;;;;;;;0.50;0.50;;;23.40;70.90;;;;;;5028821;28;20299;-83
2023/06/08 06:37:01;;;;;;;0.90;0.70;;;23.40;70.80;;;;;;5032312;28;20191;-82
2023/06/08 06:39:31;;;;;;;0.32;0.30;;;23.40;70.60;;;;;;5030418;28;20203;-81
2023/06/08 06:42:00;;;;;;;3.80;0.50;;;23.50;70.80;;;;;;5027847;28;20465;-82
2023/06/08 06:44:29;;;;;;;0.30;0.30;;;23.60;70.60;;;;;;5027490;28;20275;-81
2023/06/08 06:46:57;;;;;;;0.45;0.32;;;23.60;70.50;;;;;;5030964;28;20575;-83
2023/06/08 06:49:26;;;;;;;2.00;1.70;;;23.70;70.30;;;;;;5031280;28;20196;-82
2023/06/08 06:51:54;;;;;;;0.30;0.30;;;23.80;70.20;;;;;;5034123;28;20245;-82
2023/06/08 06:54:23;;;;;;;0.65;0.50;;;23.80;70.00;;;;;;5030745;28;20250;-82
2023/06/08 06:56:53;;;;;;;0.43;0.43;;;23.90;69.90;;;;;;5033407;28;20191;-82
2023/06/08 06:59:22;;;;;;;0.90;0.50;;;24.00;69.40;;;;;;5031777;28;20596;-81
2023/06/08 07:01:51;;;;;;;0.40;0.40;;;24.00;68.80;;;;;;5026863;28;20202;-82
2023/06/08 07:04:21;;;;;;;1.00;0.47;;;24.10;67.80;;;;;;5030375;28;20196;-82
2023/06/08 07:06:53;;;;;;;1.52;1.23;;;24.10;67.70;;;;;;5038433;28;20191;-82
2023/06/08 07:09:23;;;;;;;0.77;0.77;;;24.20;68.60;;;;;;5036909;28;20199;-82
2023/06/08 07:11:53;;;;;;;0.38;0.38;;;24.20;67.80;;;;;;5029142;28;20226;-81
2023/06/08 07:14:42;;;;;;;0.47;0.45;;;24.20;67.20;;;;;;5034788;28;20705;-82
2023/06/08 07:17:11;;;;;;;0.40;0.40;;;24.20;67.20;;;;;;5026432;28;20576;-82
2023/06/08 07:19:40;;;;;;;0.52;0.40;;;24.20;67.00;;;;;;5031259;28;20248;-82
2023/06/08 07:22:09;;;;;;;0.40;0.40;;;24.20;67.00;;;;;;5032853;28;20191;-82
2023/06/08 07:24:52;;;;;;;0.70;0.70;;;24.30;66.80;;;;;;5024562;28;20553;-82
2023/06/08 07:27:44;;;;;;;0.80;0.80;;;24.30;66.70;;;;;;5028695;28;20287;-81
2023/06/08 07:30:14;;;;;;;1.27;1.17;;;24.30;66.40;;;;;;5031624;28;20299;-81
2023/06/08 07:32:43;;;;;;;0.93;0.55;;;24.30;66.10;;;;;;5035145;28;20206;-82
2023/06/08 07:35:12;;;;;;;0.70;0.55;;;24.40;65.90;;;;;;5029516;28;20773;-82
2023/06/08 07:37:40;;;;;;;1.08;0.93;;;24.40;65.20;;;;;;5030952;28;20199;-83
2023/06/08 07:40:10;;;;;;;1.77;0.57;;;24.40;65.90;;;;;;5029158;28;20196;-82
2023/06/08 07:42:39;;;;;;;0.50;0.50;;;24.50;65.30;;;;;;5030352;28;20534;-82
2023/06/08 07:45:11;;;;;;;1.23;0.68;;;24.50;65.10;;;;;;5029974;28;20218;-82
2023/06/08 07:47:39;;;;;;;1.15;1.02;;;24.50;63.30;;;;;;5033350;28;20194;-82
2023/06/08 07:50:08;;;;;;;0.50;0.47;;;24.60;63.60;;;;;;5035038;28;20298;-83
2023/06/08 07:52:38;;;;;;;0.60;0.60;;;24.60;64.60;;;;;;5035571;28;20279;-81
2023/06/08 07:55:07;;;;;;;0.45;0.45;;;24.70;63.20;;;;;;5035128;28;20231;-81
2023/06/08 07:57:36;;;;;;;0.50;0.50;;;24.70;63.00;;;;;;5033463;28;20253;-82
2023/06/08 08:00:06;;;;;;;0.40;0.40;;;24.80;62.80;;;;;;5033060;28;20306;-82
2023/06/08 08:02:36;;;;;;;0.20;0.20;;;24.80;62.70;;;;;;5032841;28;20254;-83
2023/06/08 08:05:07;;;;;;;1.77;0.57;;;24.80;62.60;;;;;;5025537;28;20654;-82
2023/06/08 08:07:36;;;;;;;0.25;0.25;;;24.90;62.80;;;;;;5022687;28;20291;-82
2023/06/08 08:10:05;;;;;;;0.88;0.70;;;24.90;60.50;;;;;;5039778;28;20340;-82
2023/06/08 08:12:34;;;;;;;0.43;0.35;;;25.00;60.50;;;;;;5033150;28;20700;-83
2023/06/08 08:15:02;;;;;;;1.63;0.93;;;25.10;60.70;;;;;;5031893;28;20215;-82
2023/06/08 08:17:30;;;;;;;0.60;0.55;;;25.20;60.30;;;;;;5029886;28;20242;-82
2023/06/08 08:20:00;;;;;;;0.55;0.50;;;25.20;60.00;;;;;;5034756;28;20203;-81
2023/06/08 08:22:29;;;;;;;0.40;0.40;;;25.20;59.50;;;;;;5028888;28;20612;-82
2023/06/08 08:24:57;;;;;;;0.73;0.60;;;25.30;59.50;;;;;;5041859;28;20923;-83
2023/06/08 08:27:25;;;;;;;0.57;0.55;;;25.30;59.40;;;;;;5038333;28;20199;-81
2023/06/08 08:29:54;;;;;;;0.30;0.30;;;25.40;59.40;;;;;;5040632;28;20192;-82
2023/06/08 08:32:23;;;;;;;0.43;0.40;;;25.40;58.40;;;;;;5031303;28;20192;-83
2023/06/08 08:34:51;;;;;;;0.75;0.55;;;25.40;57.60;;;;;;5033837;28;20219;-82
2023/06/08 08:37:22;;;;;;;0.40;0.40;;;25.50;57.40;;;;;;5036729;28;20226;-82
2023/06/08 08:39:50;;;;;;;0.85;0.77;;;25.50;57.00;;;;;;5037959;28;20195;-81
2023/06/08 08:42:23;;;;;;;0.40;0.40;;;25.50;57.10;;;;;;5034461;28;20196;-81
2023/06/08 08:44:55;;;;;;;1.27;0.70;;;25.60;57.40;;;;;;5038552;28;20565;-82
2023/06/08 08:47:26;;;;;;;0.30;0.30;;;25.60;56.90;;;;;;5039151;28;20607;-82
2023/06/08 08:50:00;;;;;;;0.93;0.60;;;25.60;56.80;;;;;;5028830;28;20657;-82
2023/06/08 08:52:33;;;;;;;1.75;0.77;;;25.70;56.00;;;;;;5030973;28;20553;-81
2023/06/08 08:55:02;;;;;;;0.45;0.45;;;25.70;55.80;;;;;;5034426;28;20520;-82
2023/06/08 08:57:31;;;;;;;3.03;0.60;;;25.80;55.60;;;;;;5031211;28;20641;-82
2023/06/08 09:00:01;;;;;;;1.75;0.38;;;25.80;55.30;;;;;;5021134;28;20215;-81
2023/06/08 09:02:29;;;;;;;0.85;0.65;;;25.90;55.40;;;;;;5026974;28;20423;-81
2023/06/08 09:04:58;;;;;;;1.00;0.50;;;25.90;55.00;;;;;;5035601;28;20196;-81
2023/06/08 09:07:26;;;;;;;0.88;0.63;;;25.90;55.00;;;;;;5034224;28;21065;-82
2023/06/08 09:10:18;;;;;;;2.25;1.08;;;26.00;54.90;;;;;;5026795;28;20195;-81
2023/06/08 09:12:48;;;;;;;1.55;0.60;;;26.10;54.90;;;;;;5033339;28;20307;-82
2023/06/08 09:15:26;;;;;;;0.43;0.35;;;26.10;54.70;;;;;;5026671;28;20188;-82
2023/06/08 09:17:55;;;;;;;0.50;0.40;;;26.20;54.70;;;;;;5035599;28;20645;-81
2023/06/08 09:20:29;;;;;;;0.40;0.40;;;26.20;53.00;;;;;;5029589;28;20287;-82
2023/06/08 09:22:57;;;;;;;0.50;0.50;;;26.30;53.50;;;;;;5039995;28;20196;-82
2023/06/08 09:25:38;;;;;;;4.13;0.60;;;26.30;53.30;;;;;;5028135;28;20217;-81
2023/06/08 09:28:25;;;;;;;0.38;0.38;;;26.40;53.70;;;;;;5028235;28;20250;-81
2023/06/08 09:30:56;;;;;;;0.35;0.30;;;26.40;53.80;;;;;;5034151;28;20287;-81
2023/06/08 09:33:27;;;;;;;1.05;0.60;;;26.50;54.10;;;;;;5033087;28;20195;-83
2023/06/08 09:36:07;;;;;;;1.83;0.85;;;26.50;54.00;;;;;;5026784;28;20209;-82
2023/06/08 09:38:36;;;;;;;0.73;0.70;;;26.50;54.10;;;;;;5029665;28;20622;-81
2023/06/08 09:41:16;;;;;;;1.05;0.45;;;26.60;53.90;;;;;;5024649;28;20200;-82
2023/06/08 09:43:45;;;;;;;0.60;0.60;;;26.60;53.80;;;;;;5028807;28;20264;-82
2023/06/08 09:46:16;;;;;;;0.82;0.60;;;26.70;54.00;;;;;;5030295;28;20192;-84
2023/06/08 09:48:53;;;;;;;1.20;0.90;;;26.70;53.50;;;;;;5030769;28;20274;-82
2023/06/08 09:51:23;;;;;;;0.80;0.80;;;26.80;53.70;;;;;;5032907;28;20223;-83
2023/06/08 09:53:55;;;;;;;0.50;0.50;;;26.80;54.60;;;;;;5032410;28;20199;-81
2023/06/08 09:56:27;;;;;;;0.77;0.40;;;26.90;53.90;;;;;;5028048;28;20692;-82
2023/06/08 09:58:57;;;;;;;0.77;0.40;;;27.00;53.80;;;;;;5027075;28;20204;-82
2023/06/08 10:01:31;;;;;;;0.40;0.40;;;27.00;53.60;;;;;;5033260;28;20255;-85
2023/06/08 10:04:03;;;;;;;0.95;0.70;;;27.00;53.10;;;;;;5034310;28;20191;-83
2023/06/08 10:06:35;;;;;;;1.75;0.63;;;27.10;52.40;;;;;;5026883;28;20286;-82
2023/06/08 10:09:09;;;;;;;0.77;0.57;;;27.10;52.40;;;;;;5031918;28;20711;-83
2023/06/08 10:11:41;;;;;;;0.98;0.57;;;27.20;52.60;;;;;;5039641;28;20227;-83
2023/06/08 10:14:12;;;;;;;0.98;0.60;;;27.30;52.90;;;;;;5032150;28;20234;-82
2023/06/08 10:16:41;;;;;;;0.52;0.47;;;27.30;52.60;;;;;;5031589;28;20207;-83
2023/06/08 10:19:11;;;;;;;0.40;0.40;;;27.30;52.50;;;;;;5026906;28;20528;-82
2023/06/08 10:21:40;;;;;;;0.32;0.32;;;27.40;52.10;;;;;;5038342;28;20187;-82
2023/06/08 10:24:10;;;;;;;1.63;0.93;;;27.40;50.80;;;;;;5035142;28;20195;-83
2023/06/08 10:26:40;;;;;;;1.17;1.08;;;27.50;51.10;;;;;;5023928;28;20211;-84
2023/06/08 10:29:10;;;;;;;0.40;0.40;;;27.50;51.00;;;;;;5024950;28;20200;-82
2023/06/08 10:31:50;;;;;;;2.97;0.60;;;27.60;51.10;;;;;;5030983;28;20555;-82
2023/06/08 10:34:18;;;;;;;0.40;0.40;;;27.70;51.20;;;;;;5034267;28;20195;-83
2023/06/08 10:36:47;;;;;;;0.68;0.60;;;27.80;51.40;;;;;;5028203;28;20220;-82
2023/06/08 10:39:17;;;;;;;6.13;1.65;;;27.80;51.20;;;;;;5032247;28;20203;-82
2023/06/08 10:41:54;;;;;;;0.50;0.45;;;27.90;51.30;;;;;;5030397;28;20753;-84
2023/06/08 10:44:27;;;;;;;0.20;0.20;;;28.00;51.20;;;;;;5028907;28;20195;-83
2023/06/08 10:46:59;;;;;;;1.60;0.43;;;28.00;50.20;;;;;;5029219;28;20673;-84
2023/06/08 10:49:33;;;;;;;0.43;0.43;;;28.00;49.30;;;;;;5038013;28;20215;-83
2023/06/08 10:52:02;;;;;;;0.68;0.68;;;28.10;49.30;;;;;;5026343;28;20199;-84
2023/06/08 10:54:32;;;;;;;0.57;0.30;;;28.10;48.90;;;;;;5030089;28;20204;-83
2023/06/08 10:57:06;;;;;;;0.68;0.50;;;28.10;48.70;;;;;;5033335;28;20218;-83
2023/06/08 10:59:38;;;;;;;0.75;0.60;;;28.20;48.20;;;;;;5026664;28;20194;-82
2023/06/08 11:02:08;;;;;;;0.55;0.55;;;28.20;47.90;;;;;;5028093;28;20223;-83
2023/06/08 11:04:36;;;;;;;0.60;0.32;;;28.20;48.50;;;;;;5026459;28;20196;-82
2023/06/08 11:07:17;;;;;;;1.00;0.70;;;28.30;49.00;;;;;;5031672;28;20651;-83
2023/06/08 11:09:49;;;;;;;0.80;0.60;;;28.40;49.00;;;;;;5023756;28;20262;-84
2023/06/08 11:12:21;;;;;;;0.60;0.60;;;28.40;48.50;;;;;;5028773;28;20307;-84
2023/06/08 11:14:49;;;;;;;1.35;0.85;;;28.40;48.10;;;;;;5030490;28;20233;-83
2023/06/08 11:17:18;;;;;;;0.30;0.30;;;28.50;48.30;;;;;;5031534;28;20585;-83
2023/06/08 11:19:46;;;;;;;0.45;0.40;;;28.50;48.50;;;;;;5031545;28;20191;-82
2023/06/08 11:22:14;;;;;;;5.20;0.77;;;28.60;48.40;;;;;;5031114;28;20192;-83
2023/06/08 11:24:43;;;;;;;1.13;0.68;;;28.60;47.50;;;;;;5025718;28;20200;-82
2023/06/08 11:27:18;;;;;;;0.65;0.30;;;28.70;47.80;;;;;;5035333;28;20205;-81
2023/06/08 11:29:47;;;;;;;1.00;0.65;;;28.80;47.60;;;;;;5032672;28;20709;-83
2023/06/08 11:32:18;;;;;;;4.13;1.08;;;28.70;46.90;;;;;;5029068;28;20719;-84
2023/06/08 11:34:49;;;;;;;0.40;0.40;;;28.80;46.80;;;;;;5026494;28;20199;-83
2023/06/08 11:37:19;;;;;;;0.95;0.77;;;28.90;46.80;;;;;;5031779;28;20215;-82
2023/06/08 11:39:48;;;;;;;6.20;0.88;;;28.90;47.00;;;;;;5029858;28;20291;-82
2023/06/08 11:42:18;;;;;;;0.30;0.30;;;29.00;47.00;;;;;;5032048;28;20222;-84
2023/06/08 11:44:49;;;;;;;1.40;0.60;;;29.00;46.60;;;;;;5034347;28;20199;-84
2023/06/08 11:47:18;;;;;;;3.33;0.65;;;29.00;46.10;;;;;;5035012;28;20205;-83
2023/06/08 11:49:53;;;;;;;0.65;0.65;;;29.10;45.80;;;;;;5041052;28;20293;-82
2023/06/08 11:52:23;;;;;;;0.47;0.47;;;29.10;45.80;;;;;;5034871;28;20213;-84
2023/06/08 11:54:55;;;;;;;0.77;0.50;;;29.20;46.00;;;;;;5026499;28;20211;-82
2023/06/08 11:57:40;;;;;;;0.38;0.38;;;29.20;45.70;;;;;;5039283;28;20218;-84
2023/06/08 12:00:12;;;;;;;0.43;0.40;;;29.30;46.00;;;;;;5027967;28;20192;-83
2023/06/08 12:02:41;;;;;;;0.50;0.50;;;29.40;45.90;;;;;;5031476;28;20206;-83
2023/06/08 12:05:15;;;;;;;1.77;0.88;;;29.50;46.10;;;;;;5024953;28;20192;-83
2023/06/08 12:07:58;;;;;;;1.27;0.68;;;29.50;45.80;;;;;;5033540;28;20191;-83
2023/06/08 12:10:33;;;;;;;2.13;0.95;;;29.50;45.30;;;;;;5028393;28;20199;-84
2023/06/08 12:13:06;;;;;;;1.65;1.10;;;29.60;45.30;;;;;;5029954;28;20695;-83
2023/06/08 12:15:38;;;;;;;0.50;0.45;;;29.60;45.00;;;;;;5037112;28;20218;-84
2023/06/08 12:18:07;;;;;;;0.40;0.40;;;29.70;44.80;;;;;;5040094;28;20215;-82
2023/06/08 12:20:36;;;;;;;0.75;0.52;;;29.80;45.00;;;;;;5034494;28;20205;-82
2023/06/08 12:23:05;;;;;;;0.60;0.60;;;29.90;44.10;;;;;;5037641;28;20203;-85
2023/06/08 12:25:34;;;;;;;1.10;0.77;;;30.00;43.80;;;;;;5034473;28;20206;-83
2023/06/08 12:28:05;;;;;;;0.43;0.30;;;30.10;44.00;;;;;;5025861;28;20192;-82
2023/06/08 12:30:33;;;;;;;0.40;0.40;;;30.10;44.00;;;;;;5037514;28;20267;-79
2023/06/08 12:33:02;;;;;;;1.02;0.60;;;30.10;43.10;;;;;;5039343;28;20195;-80
2023/06/08 12:35:30;;;;;;;0.40;0.40;;;30.20;43.60;;;;;;5031391;28;20196;-81
2023/06/08 12:37:59;;;;;;;0.35;0.35;;;30.20;44.10;;;;;;5029240;28;20220;-80
2023/06/08 12:40:27;;;;;;;1.55;0.85;;;30.30;43.90;;;;;;5035173;28;20195;-80
2023/06/08 12:42:57;;;;;;;0.50;0.50;;;30.40;43.40;;;;;;5031536;28;20214;-81
2023/06/08 12:45:27;;;;;;;0.30;0.30;;;30.50;43.60;;;;;;5031357;28;20200;-81
2023/06/08 12:47:59;;;;;;;2.78;0.80;;;30.60;43.60;;;;;;5032393;28;20192;-82
2023/06/08 12:50:36;;;;;;;1.08;0.60;;;30.60;42.70;;;;;;5029284;28;20195;-80
2023/06/08 12:53:11;;;;;;;0.60;0.60;;;30.80;42.60;;;;;;5030992;28;20188;-83
2023/06/08 13:07:35;;;;;;;;;;;;;;;;;;;;;
2023/06/08 13:10:25;;;;;;;0.70;0.60;;;30.90;42.70;;;;;;4951569;28;20216;-84
2023/06/08 13:12:53;;;;;;;1.58;0.70;;;31.00;43.10;;;;;;4991883;28;20232;-83
2023/06/08 13:15:22;;;;;;;1.70;0.60;;;30.90;42.10;;;;;;5025677;28;20227;-83
2023/06/08 13:17:50;;;;;;;1.95;0.82;;;31.10;42.60;;;;;;5032485;28;20855;-83